Time;durP1;ratioP1;P1;durP2;ratioP2;P2;SDS_P1;SDS_P2;PMS_P1;PMS_P2;Temp;Humidity;BMP_temperature;BMP_pressure;BME280_temperature;BME280_humidity;BME280_pressure;Samples;Min_cycle;Max_cycle;Signal;HPM_P1;HPM_P2
2022/04/13 00:01:41;;;;;;;1.50;0.90;;;18.30;60.00;;;;;;5122093;27;45239;-77
2022/04/13 00:04:08;;;;;;;1.05;0.90;;;18.30;59.90;;;;;;5120574;27;45342;-77
2022/04/13 00:06:38;;;;;;;1.90;0.85;;;18.30;59.90;;;;;;5122831;27;48142;-76
2022/04/13 00:09:07;;;;;;;1.50;0.90;;;18.40;59.80;;;;;;5124612;27;45314;-77
2022/04/13 00:11:34;;;;;;;1.98;0.70;;;18.40;59.60;;;;;;5126244;27;45352;-77
2022/04/13 00:14:01;;;;;;;1.90;0.63;;;18.40;59.60;;;;;;5127835;27;45471;-77
2022/04/13 00:16:28;;;;;;;1.38;0.80;;;18.40;59.40;;;;;;5124669;27;45440;-77
2022/04/13 00:18:55;;;;;;;2.53;1.02;;;18.40;59.40;;;;;;5128530;27;46130;-77
2022/04/13 00:21:22;;;;;;;1.00;0.57;;;18.40;59.30;;;;;;5127017;27;45317;-77
2022/04/13 00:23:49;;;;;;;1.75;0.82;;;18.40;59.50;;;;;;5128273;27;45230;-76
2022/04/13 00:26:17;;;;;;;2.42;0.95;;;18.40;59.40;;;;;;5119710;27;47960;-76
2022/04/13 00:28:44;;;;;;;3.28;0.90;;;18.30;59.60;;;;;;5122215;27;45430;-76
2022/04/13 00:31:10;;;;;;;2.25;1.17;;;18.40;59.60;;;;;;5128129;27;45309;-76
2022/04/13 00:33:37;;;;;;;1.70;1.00;;;18.40;59.70;;;;;;5122603;27;45510;-76
2022/04/13 00:36:04;;;;;;;1.88;1.02;;;18.40;59.70;;;;;;5126185;27;45984;-76
2022/04/13 00:38:31;;;;;;;1.02;0.80;;;18.30;59.70;;;;;;5126268;27;45317;-77
2022/04/13 00:40:58;;;;;;;1.38;0.80;;;18.30;59.70;;;;;;5127735;27;45322;-77
2022/04/13 00:43:27;;;;;;;1.65;0.95;;;18.30;59.60;;;;;;5125401;27;45354;-76
2022/04/13 00:45:53;;;;;;;1.30;0.80;;;18.40;59.80;;;;;;5121891;27;47145;-79
2022/04/13 00:48:29;;;;;;;1.55;1.02;;;18.40;59.90;;;;;;5117074;27;45345;-77
2022/04/13 00:50:56;;;;;;;1.13;1.02;;;18.40;60.00;;;;;;5126157;27;45265;-77
2022/04/13 00:53:25;;;;;;;1.48;0.82;;;18.40;60.00;;;;;;5127007;27;45294;-77
2022/04/13 00:55:56;;;;;;;1.83;0.98;;;18.40;60.10;;;;;;5124184;27;45417;-77
2022/04/13 00:58:25;;;;;;;2.13;1.20;;;18.40;60.20;;;;;;5120927;27;45117;-77
2022/04/13 01:00:54;;;;;;;2.58;1.00;;;18.40;60.40;;;;;;5126022;27;45255;-77
2022/04/13 01:03:24;;;;;;;1.13;0.77;;;18.30;60.30;;;;;;5119747;27;45346;-77
2022/04/13 01:05:52;;;;;;;1.33;0.80;;;18.40;60.40;;;;;;5125073;27;45397;-77
2022/04/13 01:08:20;;;;;;;2.13;1.00;;;18.30;60.30;;;;;;5119171;27;45186;-77
2022/04/13 01:10:50;;;;;;;3.08;1.00;;;18.30;60.30;;;;;;5122632;27;45246;-76
2022/04/13 01:13:18;;;;;;;1.65;1.00;;;18.30;60.10;;;;;;5121300;27;45703;-77
2022/04/13 01:15:45;;;;;;;2.63;0.88;;;18.40;60.00;;;;;;5126446;27;45372;-77
2022/04/13 01:18:14;;;;;;;1.73;0.90;;;18.30;59.80;;;;;;5126473;27;45175;-77
2022/04/13 01:20:52;;;;;;;2.20;1.02;;;18.40;60.00;;;;;;5123982;27;45344;-77
2022/04/13 01:23:21;;;;;;;1.35;0.88;;;18.40;60.00;;;;;;5125807;27;45446;-77
2022/04/13 01:25:48;;;;;;;1.33;0.70;;;18.40;59.90;;;;;;5124795;27;45238;-77
2022/04/13 01:28:15;;;;;;;2.35;0.80;;;18.40;59.80;;;;;;5129684;27;45210;-77
2022/04/13 01:30:42;;;;;;;2.17;0.90;;;18.40;59.70;;;;;;5134508;27;45228;-77
2022/04/13 01:33:10;;;;;;;2.03;1.00;;;18.40;60.00;;;;;;5131954;27;45657;-77
2022/04/13 01:35:37;;;;;;;2.55;1.00;;;18.40;60.00;;;;;;5125436;27;47152;-77
2022/04/13 01:38:04;;;;;;;1.65;0.90;;;18.40;60.10;;;;;;5129203;27;45267;-77
2022/04/13 01:40:33;;;;;;;1.50;0.90;;;18.40;60.10;;;;;;5127152;27;45324;-77
2022/04/13 01:43:00;;;;;;;1.60;0.90;;;18.40;60.10;;;;;;5130884;27;45237;-77
2022/04/13 01:45:26;;;;;;;2.67;1.13;;;18.30;60.00;;;;;;5127684;27;46621;-77
2022/04/13 01:47:53;;;;;;;2.55;0.95;;;18.40;60.00;;;;;;5127262;27;45866;-77
2022/04/13 01:50:21;;;;;;;2.58;1.30;;;18.40;59.80;;;;;;5124386;27;45636;-77
2022/04/13 01:52:49;;;;;;;2.40;1.10;;;18.40;60.00;;;;;;5127513;27;45447;-77
2022/04/13 01:55:16;;;;;;;2.55;1.02;;;18.40;59.90;;;;;;5126595;27;46590;-77
2022/04/13 01:57:44;;;;;;;1.15;0.68;;;18.40;59.90;;;;;;5128096;27;45217;-77
2022/04/13 02:00:12;;;;;;;2.22;1.20;;;18.40;60.00;;;;;;5120133;27;45574;-77
2022/04/13 02:02:39;;;;;;;4.68;1.05;;;18.40;60.00;;;;;;5128545;27;45180;-77
2022/04/13 02:05:07;;;;;;;2.97;0.95;;;18.40;60.00;;;;;;5124154;27;45278;-77
2022/04/13 02:07:34;;;;;;;2.00;0.80;;;18.40;60.00;;;;;;5124957;27;45247;-77
2022/04/13 02:10:01;;;;;;;1.85;1.13;;;18.40;59.90;;;;;;5125408;27;45217;-77
2022/04/13 02:12:28;;;;;;;0.85;0.65;;;18.40;60.00;;;;;;5129092;27;45327;-77
2022/04/13 02:14:56;;;;;;;1.70;1.13;;;18.40;60.00;;;;;;5128124;27;47935;-77
2022/04/13 02:17:22;;;;;;;2.08;1.00;;;18.40;60.90;;;;;;5124287;27;45611;-77
2022/04/13 02:19:49;;;;;;;2.75;1.13;;;18.40;59.80;;;;;;5125019;27;45633;-77
2022/04/13 02:22:16;;;;;;;1.65;0.80;;;18.40;59.60;;;;;;5122179;27;45786;-77
2022/04/13 02:24:43;;;;;;;1.65;1.00;;;18.40;59.50;;;;;;5114019;27;47619;-77
2022/04/13 02:27:10;;;;;;;2.42;1.08;;;18.40;59.50;;;;;;5129261;27;45214;-77
2022/04/13 02:29:37;;;;;;;3.58;0.75;;;18.40;59.40;;;;;;5124455;27;45172;-77
2022/04/13 02:32:06;;;;;;;1.80;0.80;;;18.40;59.40;;;;;;5121127;27;45120;-77
2022/04/13 02:34:33;;;;;;;1.55;0.63;;;18.40;59.50;;;;;;5122290;27;47936;-77
2022/04/13 02:37:01;;;;;;;3.10;1.00;;;18.40;59.50;;;;;;5127882;27;45614;-77
2022/04/13 02:39:27;;;;;;;1.30;0.70;;;18.40;59.50;;;;;;5128855;27;45510;-77
2022/04/13 02:41:54;;;;;;;2.33;0.88;;;18.40;59.60;;;;;;5128685;27;45192;-77
2022/04/13 02:44:21;;;;;;;2.90;1.20;;;18.30;59.30;;;;;;5129212;27;46609;-77
2022/04/13 02:46:48;;;;;;;3.40;0.80;;;18.40;59.40;;;;;;5128351;27;45435;-76
2022/04/13 02:49:16;;;;;;;3.25;1.25;;;18.40;59.40;;;;;;5128197;27;45319;-76
2022/04/13 02:51:43;;;;;;;2.78;1.15;;;18.40;59.30;;;;;;5125628;27;45471;-77
2022/04/13 02:54:10;;;;;;;1.95;0.90;;;18.30;59.20;;;;;;5130459;27;45242;-76
2022/04/13 02:56:36;;;;;;;1.23;0.85;;;18.40;59.20;;;;;;5126481;27;45384;-77
2022/04/13 02:59:03;;;;;;;2.10;0.98;;;18.40;59.20;;;;;;5128509;27;45164;-77
2022/04/13 03:01:30;;;;;;;2.10;1.10;;;18.40;59.20;;;;;;5126313;27;45291;-77
2022/04/13 03:03:57;;;;;;;1.00;0.77;;;18.40;59.10;;;;;;5128323;27;45215;-77
2022/04/13 03:06:25;;;;;;;3.58;0.80;;;18.40;59.00;;;;;;5127327;27;45173;-77
2022/04/13 03:08:52;;;;;;;1.52;0.80;;;18.40;58.90;;;;;;5128159;27;45280;-76
2022/04/13 03:11:18;;;;;;;2.55;0.90;;;18.40;59.00;;;;;;5122708;27;45374;-77
2022/04/13 03:13:46;;;;;;;4.03;1.23;;;18.40;58.30;;;;;;5129634;27;47431;-77
2022/04/13 03:16:13;;;;;;;2.25;1.10;;;18.40;57.50;;;;;;5126076;27;45478;-77
2022/04/13 03:18:40;;;;;;;4.05;1.10;;;18.40;58.00;;;;;;5124157;27;45669;-76
2022/04/13 03:21:07;;;;;;;1.80;1.05;;;18.40;58.80;;;;;;5128791;27;45266;-76
2022/04/13 03:23:35;;;;;;;3.40;1.00;;;18.40;59.30;;;;;;5129075;27;45286;-76
2022/04/13 03:26:02;;;;;;;1.80;0.82;;;18.40;59.40;;;;;;5126594;27;45185;-77
2022/04/13 03:28:28;;;;;;;4.45;1.10;;;18.40;59.50;;;;;;5128624;27;45294;-77
2022/04/13 03:30:56;;;;;;;2.50;1.00;;;18.40;59.50;;;;;;5126268;27;45455;-77
2022/04/13 03:33:23;;;;;;;1.00;0.80;;;18.40;59.70;;;;;;5125468;27;48151;-77
2022/04/13 03:35:50;;;;;;;2.25;1.17;;;18.40;59.90;;;;;;5124439;27;45356;-77
2022/04/13 03:38:17;;;;;;;1.65;1.10;;;18.40;60.00;;;;;;5123468;27;45895;-77
2022/04/13 03:40:45;;;;;;;2.30;0.98;;;18.40;60.00;;;;;;5127593;27;45586;-77
2022/04/13 03:43:12;;;;;;;3.40;1.15;;;18.40;60.60;;;;;;5125247;27;45309;-77
2022/04/13 03:45:39;;;;;;;1.55;1.10;;;18.40;59.70;;;;;;5120842;27;45167;-77
2022/04/13 03:48:06;;;;;;;2.10;1.17;;;18.40;58.50;;;;;;5121112;27;45222;-76
2022/04/13 03:50:33;;;;;;;2.38;1.02;;;18.40;58.50;;;;;;5137774;27;45349;-77
2022/04/13 03:53:00;;;;;;;1.48;0.75;;;18.40;59.20;;;;;;5141255;27;46307;-76
2022/04/13 03:55:26;;;;;;;1.17;0.95;;;18.40;59.50;;;;;;5110529;27;45171;-77
2022/04/13 03:57:55;;;;;;;1.77;0.80;;;18.40;59.90;;;;;;5129538;27;45340;-77
2022/04/13 04:00:21;;;;;;;2.10;1.35;;;18.40;59.80;;;;;;5129018;27;45080;-77
2022/04/13 04:02:48;;;;;;;2.63;1.20;;;18.40;59.90;;;;;;5117748;27;45270;-77
2022/04/13 04:05:15;;;;;;;2.10;0.95;;;18.40;60.00;;;;;;5120199;27;45143;-77
2022/04/13 04:07:42;;;;;;;3.95;1.23;;;18.40;60.20;;;;;;5127398;27;45282;-77
2022/04/13 04:10:11;;;;;;;2.13;1.10;;;18.40;60.80;;;;;;5128736;27;45227;-77
2022/04/13 04:12:38;;;;;;;3.50;1.10;;;18.30;61.00;;;;;;5126426;27;46234;-77
2022/04/13 04:15:08;;;;;;;2.47;1.05;;;18.30;61.80;;;;;;5126851;27;45209;-77
2022/04/13 04:17:35;;;;;;;2.83;0.95;;;18.30;62.40;;;;;;5124064;27;45246;-77
2022/04/13 04:20:02;;;;;;;3.28;1.30;;;18.30;62.20;;;;;;5112814;27;45298;-77
2022/04/13 04:22:29;;;;;;;3.40;1.20;;;18.30;60.90;;;;;;5120326;27;46407;-76
2022/04/13 04:24:55;;;;;;;1.35;1.02;;;18.20;59.40;;;;;;5128836;27;45149;-77
2022/04/13 04:27:22;;;;;;;2.70;1.20;;;18.20;58.50;;;;;;5127623;27;45148;-77
2022/04/13 04:29:49;;;;;;;2.67;1.17;;;18.20;58.10;;;;;;5115081;27;45353;-77
2022/04/13 04:32:17;;;;;;;1.75;0.90;;;18.20;57.70;;;;;;5112156;27;47144;-76
2022/04/13 04:34:44;;;;;;;1.48;1.00;;;18.20;57.40;;;;;;5119627;27;45132;-76
2022/04/13 04:37:11;;;;;;;3.40;1.08;;;18.20;57.00;;;;;;5118319;27;45259;-77
2022/04/13 04:39:38;;;;;;;2.80;1.13;;;18.20;57.00;;;;;;5128156;27;45335;-76
2022/04/13 04:42:05;;;;;;;4.90;1.48;;;18.20;56.80;;;;;;5117722;27;45219;-76
2022/04/13 04:44:32;;;;;;;2.28;1.13;;;18.20;56.40;;;;;;5122918;27;45215;-76
2022/04/13 04:46:58;;;;;;;7.05;1.30;;;18.20;57.40;;;;;;5120203;27;45394;-76
2022/04/13 04:49:27;;;;;;;2.15;1.20;;;18.30;56.20;;;;;;5122565;27;45703;-76
2022/04/13 04:51:53;;;;;;;2.85;1.17;;;18.30;56.30;;;;;;5121931;27;46063;-76
2022/04/13 04:54:20;;;;;;;2.35;1.08;;;18.30;56.20;;;;;;5119752;27;46304;-76
2022/04/13 04:56:47;;;;;;;2.65;1.35;;;18.30;56.20;;;;;;5120350;27;45367;-77
2022/04/13 04:59:15;;;;;;;4.05;1.17;;;18.30;56.50;;;;;;5128255;27;45280;-76
2022/04/13 05:01:42;;;;;;;2.42;1.10;;;18.30;58.10;;;;;;5140743;27;47326;-76
2022/04/13 05:04:09;;;;;;;2.03;0.90;;;18.30;59.20;;;;;;5138863;27;45412;-77
2022/04/13 05:06:37;;;;;;;2.72;1.35;;;18.30;60.00;;;;;;5128850;27;45280;-77
2022/04/13 05:09:04;;;;;;;3.42;1.30;;;18.30;60.30;;;;;;5128203;27;45247;-77
2022/04/13 05:11:31;;;;;;;2.78;1.35;;;18.40;60.50;;;;;;5126597;27;47803;-77
2022/04/13 05:13:58;;;;;;;4.50;1.10;;;18.40;60.70;;;;;;5112240;27;46000;-77
2022/04/13 05:16:24;;;;;;;2.17;1.23;;;18.40;60.90;;;;;;5127357;27;45456;-77
2022/04/13 05:18:51;;;;;;;1.75;0.90;;;18.30;60.90;;;;;;5114870;27;45339;-77
2022/04/13 05:21:18;;;;;;;3.55;1.27;;;18.40;60.90;;;;;;5130817;27;46441;-77
2022/04/13 05:23:46;;;;;;;1.83;0.98;;;18.30;61.00;;;;;;5127441;27;45363;-77
2022/04/13 05:26:18;;;;;;;2.28;1.05;;;18.30;61.20;;;;;;5131273;27;45296;-77
2022/04/13 05:28:45;;;;;;;2.53;1.05;;;18.30;61.00;;;;;;5118796;27;45438;-77
2022/04/13 05:31:11;;;;;;;3.08;1.23;;;18.30;60.80;;;;;;5125966;27;46093;-77
2022/04/13 05:33:38;;;;;;;4.15;1.27;;;18.30;59.80;;;;;;5122087;27;45661;-77
2022/04/13 05:36:08;;;;;;;3.60;1.30;;;18.30;59.10;;;;;;5111176;27;45245;-77
2022/04/13 05:38:35;;;;;;;2.17;1.00;;;18.30;58.90;;;;;;5129005;27;45748;-77
2022/04/13 05:41:04;;;;;;;3.33;1.30;;;18.30;58.80;;;;;;5131415;27;46289;-77
2022/04/13 05:43:33;;;;;;;2.63;1.13;;;18.40;58.80;;;;;;5124995;27;45330;-77
2022/04/13 05:45:59;;;;;;;2.60;1.30;;;18.40;58.70;;;;;;5119851;27;45377;-77
2022/04/13 05:48:26;;;;;;;4.90;1.25;;;18.40;58.50;;;;;;5128254;27;45427;-76
2022/04/13 05:50:53;;;;;;;1.88;1.20;;;18.40;58.40;;;;;;5121663;27;45518;-76
2022/04/13 05:53:21;;;;;;;5.03;1.35;;;18.30;58.20;;;;;;5118655;27;45630;-77
2022/04/13 05:55:49;;;;;;;3.47;1.08;;;18.30;58.20;;;;;;5116122;27;45243;-76
2022/04/13 05:58:17;;;;;;;3.63;1.45;;;18.30;58.20;;;;;;5127551;27;45318;-76
2022/04/13 06:00:43;;;;;;;3.10;1.20;;;18.30;58.80;;;;;;5130935;27;47492;-76
2022/04/13 06:03:10;;;;;;;2.22;1.20;;;18.30;59.60;;;;;;5130309;27;45191;-76
2022/04/13 06:05:38;;;;;;;3.95;1.42;;;18.30;60.10;;;;;;5123512;27;45120;-76
2022/04/13 06:08:06;;;;;;;2.47;1.10;;;18.30;60.60;;;;;;5131444;27;45203;-76
2022/04/13 06:10:32;;;;;;;1.83;1.00;;;18.30;60.70;;;;;;5132650;27;46177;-77
2022/04/13 06:12:59;;;;;;;5.57;1.48;;;18.30;60.80;;;;;;5138897;27;45257;-77
2022/04/13 06:15:28;;;;;;;2.83;1.23;;;18.30;61.20;;;;;;5128146;27;45374;-76
2022/04/13 06:17:55;;;;;;;2.97;1.10;;;18.30;61.40;;;;;;5117912;27;45287;-76
2022/04/13 06:20:22;;;;;;;2.67;1.10;;;18.40;61.40;;;;;;5109391;27;47707;-77
2022/04/13 06:22:49;;;;;;;2.60;0.85;;;18.30;61.50;;;;;;5114227;27;45399;-77
2022/04/13 06:25:16;;;;;;;6.03;2.05;;;18.40;61.70;;;;;;5127728;27;45173;-77
2022/04/13 06:27:44;;;;;;;3.10;1.10;;;18.40;61.60;;;;;;5115690;27;45323;-76
2022/04/13 06:30:12;;;;;;;3.80;1.63;;;18.40;61.60;;;;;;5124518;27;46248;-77
2022/04/13 06:32:41;;;;;;;3.90;1.20;;;18.40;61.50;;;;;;5118063;27;45330;-77
2022/04/13 06:35:11;;;;;;;2.53;1.17;;;18.40;61.70;;;;;;5110074;27;45161;-77
2022/04/13 06:37:40;;;;;;;2.15;0.95;;;18.30;61.70;;;;;;5114235;27;45566;-76
2022/04/13 06:40:08;;;;;;;4.30;1.27;;;18.40;62.90;;;;;;5121689;27;47439;-77
2022/04/13 06:42:36;;;;;;;2.97;1.25;;;18.40;61.70;;;;;;5115699;27;45185;-75
2022/04/13 06:45:04;;;;;;;4.75;1.58;;;18.40;61.90;;;;;;5119560;27;45317;-75
2022/04/13 06:47:31;;;;;;;5.40;1.55;;;18.40;61.90;;;;;;5129233;27;45249;-76
2022/04/13 06:49:59;;;;;;;2.58;1.30;;;18.40;62.40;;;;;;5127990;27;45568;-76
2022/04/13 06:52:26;;;;;;;2.55;1.30;;;18.40;62.50;;;;;;5115467;27;45135;-76
2022/04/13 06:54:53;;;;;;;4.03;1.33;;;18.40;62.40;;;;;;5126746;27;45250;-76
2022/04/13 06:57:20;;;;;;;2.15;1.10;;;18.40;62.50;;;;;;5130142;27;45457;-76
2022/04/13 06:59:46;;;;;;;3.28;1.33;;;18.40;62.70;;;;;;5128495;27;46648;-76
2022/04/13 07:02:13;;;;;;;4.35;1.45;;;18.40;62.60;;;;;;5115848;27;45274;-77
2022/04/13 07:04:40;;;;;;;2.47;1.55;;;18.50;62.50;;;;;;5121020;27;45241;-77
2022/04/13 07:07:09;;;;;;;2.85;1.38;;;18.50;62.60;;;;;;5121417;27;45291;-77
2022/04/13 07:09:36;;;;;;;2.83;1.70;;;18.50;62.80;;;;;;5112570;27;47090;-77
2022/04/13 07:12:03;;;;;;;4.70;1.63;;;18.50;62.70;;;;;;5119656;27;45108;-77
2022/04/13 07:14:29;;;;;;;2.28;1.08;;;18.50;62.80;;;;;;5127325;27;45319;-77
2022/04/13 07:16:56;;;;;;;2.88;1.25;;;18.50;62.70;;;;;;5114878;27;45142;-77
2022/04/13 07:19:23;;;;;;;3.17;1.23;;;18.50;62.80;;;;;;5113599;27;47231;-78
2022/04/13 07:21:50;;;;;;;2.92;1.23;;;18.50;62.80;;;;;;5117304;27;45272;-77
2022/04/13 07:24:18;;;;;;;2.72;1.38;;;18.60;62.80;;;;;;5126830;27;45266;-77
2022/04/13 07:26:45;;;;;;;2.63;1.30;;;18.60;63.00;;;;;;5130246;27;45357;-77
2022/04/13 07:29:11;;;;;;;3.95;1.48;;;18.50;63.10;;;;;;5129089;27;45178;-77
2022/04/13 07:31:38;;;;;;;2.58;1.15;;;18.50;63.40;;;;;;5117783;27;45263;-77
2022/04/13 07:34:05;;;;;;;12.68;2.92;;;18.40;63.40;;;;;;5118800;27;46442;-77
2022/04/13 07:36:32;;;;;;;7.22;1.95;;;18.40;63.10;;;;;;5119528;27;45143;-78
2022/04/13 07:38:59;;;;;;;4.53;1.42;;;18.40;63.30;;;;;;5117004;27;45982;-77
2022/04/13 07:41:27;;;;;;;4.20;1.80;;;18.40;62.90;;;;;;5126240;27;45301;-78
2022/04/13 07:43:55;;;;;;;4.20;1.90;;;18.40;62.70;;;;;;5128819;27;45261;-78
2022/04/13 07:46:22;;;;;;;2.78;1.45;;;18.40;63.50;;;;;;5111441;27;45346;-78
2022/04/13 07:48:49;;;;;;;3.40;1.38;;;18.40;63.60;;;;;;5115612;27;46178;-78
2022/04/13 07:51:16;;;;;;;3.35;1.50;;;18.40;63.50;;;;;;5129315;27;45192;-77
2022/04/13 07:53:43;;;;;;;3.85;1.67;;;18.40;63.00;;;;;;5129479;27;45130;-78
2022/04/13 07:56:10;;;;;;;6.22;1.42;;;18.40;63.40;;;;;;5129817;27;45249;-77
2022/04/13 07:58:38;;;;;;;6.07;1.92;;;18.40;63.50;;;;;;5124488;27;47074;-75
2022/04/13 08:01:05;;;;;;;5.97;1.60;;;18.40;64.20;;;;;;5123037;27;45973;-76
2022/04/13 08:03:32;;;;;;;3.47;1.38;;;18.50;64.30;;;;;;5128570;27;45171;-77
2022/04/13 08:05:59;;;;;;;3.53;1.80;;;18.40;64.40;;;;;;5125209;27;45258;-77
2022/04/13 08:08:26;;;;;;;4.65;1.70;;;18.40;64.90;;;;;;5125848;27;45310;-77
2022/04/13 08:10:52;;;;;;;3.33;1.73;;;18.40;64.80;;;;;;5126517;27;45238;-77
2022/04/13 08:13:19;;;;;;;4.05;1.63;;;18.40;64.80;;;;;;5127248;27;45243;-76
2022/04/13 08:15:47;;;;;;;4.95;1.50;;;18.40;65.10;;;;;;5128407;27;45192;-76
2022/04/13 08:18:14;;;;;;;4.07;1.70;;;18.40;65.30;;;;;;5116293;27;46492;-76
2022/04/13 08:20:41;;;;;;;2.63;1.30;;;18.40;65.40;;;;;;5107164;27;45289;-76
2022/04/13 08:23:08;;;;;;;4.15;1.60;;;18.40;65.60;;;;;;5123818;27;45244;-76
2022/04/13 08:25:35;;;;;;;2.75;1.20;;;18.40;65.50;;;;;;5121008;27;45178;-76
2022/04/13 08:28:02;;;;;;;2.88;1.60;;;18.40;65.50;;;;;;5118104;27;47895;-80
2022/04/13 08:30:29;;;;;;;15.85;3.13;;;18.40;65.70;;;;;;5120632;27;45351;-79
2022/04/13 08:32:57;;;;;;;10.07;1.88;;;18.50;66.10;;;;;;5122853;27;45287;-80
2022/04/13 08:35:24;;;;;;;4.35;1.38;;;18.50;62.50;;;;;;5139606;27;45489;-80
2022/04/13 08:37:50;;;;;;;6.22;1.77;;;18.50;62.30;;;;;;5130272;27;47677;-80
2022/04/13 08:40:19;;;;;;;4.13;1.87;;;18.50;61.30;;;;;;5131140;27;45247;-79
2022/04/13 08:42:50;;;;;;;5.78;1.40;;;18.50;62.30;;;;;;5129911;27;45245;-79
2022/04/13 08:45:22;;;;;;;5.35;1.58;;;18.50;62.20;;;;;;5128103;27;45216;-79
2022/04/13 08:47:50;;;;;;;2.70;1.60;;;18.50;62.50;;;;;;5115634;27;46170;-79
2022/04/13 08:50:19;;;;;;;3.78;1.80;;;18.50;63.30;;;;;;5120746;27;45699;-79
2022/04/13 08:52:53;;;;;;;6.22;1.90;;;18.50;64.00;;;;;;5115370;27;46412;-79
2022/04/13 08:55:22;;;;;;;4.60;1.77;;;18.50;63.10;;;;;;5121620;27;45567;-80
2022/04/13 08:57:50;;;;;;;3.38;1.70;;;18.50;61.90;;;;;;5120326;27;47442;-79
2022/04/13 09:00:19;;;;;;;7.05;1.73;;;18.50;62.60;;;;;;5130476;27;45154;-79
2022/04/13 09:03:02;;;;;;;7.95;1.85;;;18.50;63.00;;;;;;5128268;27;45228;-79
2022/04/13 09:05:33;;;;;;;4.18;1.85;;;18.50;63.00;;;;;;5125120;27;45308;-78
2022/04/13 09:08:07;;;;;;;3.88;2.17;;;18.60;63.90;;;;;;5118161;27;46258;-78
2022/04/13 09:10:34;;;;;;;3.50;2.00;;;18.60;64.70;;;;;;5124327;27;45325;-78
2022/04/13 09:13:03;;;;;;;4.63;1.80;;;18.50;64.40;;;;;;5116260;27;45124;-79
2022/04/13 09:15:30;;;;;;;3.28;1.67;;;18.50;64.50;;;;;;5124470;27;45460;-79
2022/04/13 09:17:56;;;;;;;5.07;1.70;;;18.50;64.40;;;;;;5120677;27;46609;-79
2022/04/13 09:20:23;;;;;;;3.78;1.75;;;18.50;64.70;;;;;;5118492;27;45241;-79
2022/04/13 09:22:57;;;;;;;4.00;1.90;;;18.50;65.00;;;;;;5119508;27;45168;-78
2022/04/13 09:25:25;;;;;;;5.32;1.55;;;18.50;64.90;;;;;;5132466;27;45224;-78
2022/04/13 09:27:54;;;;;;;1.92;1.35;;;18.50;64.70;;;;;;5122453;27;47371;-78
2022/04/13 09:30:21;;;;;;;3.90;1.80;;;18.50;64.70;;;;;;5120534;27;46454;-79
2022/04/13 09:32:49;;;;;;;3.88;1.70;;;18.50;64.80;;;;;;5117744;27;45322;-79
2022/04/13 09:35:17;;;;;;;4.00;1.60;;;18.50;66.30;;;;;;5122098;27;45384;-79
2022/04/13 09:37:44;;;;;;;5.10;1.88;;;18.50;65.20;;;;;;5122604;27;45410;-79
2022/04/13 09:40:27;;;;;;;4.43;1.60;;;18.50;65.50;;;;;;5116524;27;45364;-79
2022/04/13 09:43:03;;;;;;;6.45;1.90;;;18.60;65.90;;;;;;5115539;27;45911;-79
2022/04/13 09:45:34;;;;;;;4.20;1.88;;;18.60;65.20;;;;;;5123577;27;45309;-79
2022/04/13 09:48:04;;;;;;;3.58;1.45;;;18.60;65.50;;;;;;5125607;27;48211;-78
2022/04/13 09:50:31;;;;;;;3.10;1.48;;;18.50;65.10;;;;;;5127516;27;45297;-78
2022/04/13 09:52:58;;;;;;;7.13;1.85;;;18.50;64.80;;;;;;5130577;27;45250;-80
2022/04/13 09:55:26;;;;;;;3.95;1.27;;;18.50;64.90;;;;;;5131875;27;45112;-79
2022/04/13 09:58:04;;;;;;;2.88;1.23;;;18.50;62.40;;;;;;5129795;27;46196;-80
2022/04/13 10:00:32;;;;;;;2.13;1.02;;;18.50;63.90;;;;;;5129921;27;45271;-82
2022/04/13 10:03:11;;;;;;;2.05;1.10;;;18.50;62.40;;;;;;5129397;27;45272;-80
2022/04/13 10:05:41;;;;;;;2.10;1.25;;;18.50;62.60;;;;;;5130399;27;45163;-78
2022/04/13 10:08:10;;;;;;;2.65;1.10;;;18.50;63.20;;;;;;5130160;27;47938;-78
2022/04/13 10:10:41;;;;;;;3.10;1.20;;;18.50;62.70;;;;;;5116404;27;45590;-78
2022/04/13 10:13:08;;;;;;;3.10;1.30;;;18.50;62.90;;;;;;5130219;27;45199;-78
2022/04/13 10:15:35;;;;;;;2.28;1.10;;;18.50;62.50;;;;;;5126319;27;45318;-79
2022/04/13 10:18:05;;;;;;;3.70;1.20;;;18.50;62.50;;;;;;5130673;27;45316;-79
2022/04/13 10:20:49;;;;;;;1.33;0.77;;;18.50;62.60;;;;;;5129957;27;45343;-79
2022/04/13 10:23:16;;;;;;;2.75;1.10;;;18.50;62.90;;;;;;5129536;27;45480;-79
2022/04/13 10:25:45;;;;;;;2.15;1.10;;;18.50;62.00;;;;;;5126353;27;45245;-79
2022/04/13 10:28:13;;;;;;;6.70;1.67;;;18.50;63.00;;;;;;5120472;27;47233;-80
2022/04/13 10:30:42;;;;;;;3.20;1.30;;;18.50;65.00;;;;;;5125553;27;45198;-77
2022/04/13 10:33:10;;;;;;;2.40;1.00;;;18.50;66.70;;;;;;5114997;27;45176;-77
2022/04/13 10:35:38;;;;;;;3.03;1.10;;;18.50;64.30;;;;;;5119691;27;45470;-77
2022/04/13 10:38:06;;;;;;;1.77;0.93;;;18.50;64.00;;;;;;5126499;27;45215;-78
2022/04/13 10:40:34;;;;;;;2.67;0.90;;;18.50;64.30;;;;;;5124272;27;45216;-78
2022/04/13 10:43:03;;;;;;;3.33;1.00;;;18.50;65.40;;;;;;5109801;27;45364;-78
2022/04/13 10:45:31;;;;;;;2.53;1.30;;;18.50;65.20;;;;;;5121769;27;45402;-78
2022/04/13 10:48:04;;;;;;;2.05;1.08;;;18.50;65.70;;;;;;5108893;27;45529;-78
2022/04/13 10:50:41;;;;;;;2.60;1.20;;;18.60;65.70;;;;;;5124780;27;45282;-77
2022/04/13 10:53:21;;;;;;;1.27;0.93;;;18.50;65.30;;;;;;5130705;27;45242;-78
2022/04/13 10:55:57;;;;;;;2.28;1.20;;;18.50;65.90;;;;;;5130701;27;45186;-78
2022/04/13 10:58:38;;;;;;;2.28;1.00;;;18.50;66.80;;;;;;5125225;27;46207;-79
2022/04/13 11:01:09;;;;;;;2.50;0.82;;;18.50;67.10;;;;;;5115258;27;45266;-78
2022/04/13 11:03:37;;;;;;;3.92;1.20;;;18.50;68.40;;;;;;5125593;27;45507;-78
2022/04/13 11:06:06;;;;;;;2.08;0.95;;;18.50;68.70;;;;;;5119756;27;45394;-78
2022/04/13 11:08:46;;;;;;;2.35;0.90;;;18.50;68.60;;;;;;5111863;27;46453;-78
2022/04/13 11:11:18;;;;;;;2.15;1.10;;;18.50;67.50;;;;;;5127341;27;45300;-77
2022/04/13 11:13:48;;;;;;;2.28;0.98;;;18.50;68.40;;;;;;5124125;27;45358;-78
2022/04/13 11:16:16;;;;;;;1.35;0.90;;;18.50;68.30;;;;;;5109871;27;45439;-77
2022/04/13 11:19:05;;;;;;;1.75;1.00;;;18.60;69.80;;;;;;5122665;27;45283;-78
2022/04/13 11:21:33;;;;;;;2.95;1.27;;;18.50;70.00;;;;;;5127589;27;45301;-78
2022/04/13 11:24:00;;;;;;;2.35;1.30;;;18.50;70.90;;;;;;5128175;27;45237;-78
2022/04/13 11:26:28;;;;;;;3.45;1.40;;;18.50;69.90;;;;;;5121088;27;45539;-78
2022/04/13 11:29:17;;;;;;;1.67;1.10;;;18.50;70.50;;;;;;5114436;27;46280;-78
2022/04/13 11:32:06;;;;;;;2.25;1.10;;;18.40;70.70;;;;;;5126489;27;45293;-78
2022/04/13 11:34:38;;;;;;;1.27;1.10;;;18.40;71.70;;;;;;5113560;27;45713;-78
2022/04/13 11:37:06;;;;;;;2.40;1.17;;;18.40;71.20;;;;;;5119552;27;45269;-78
2022/04/13 11:39:52;;;;;;;1.02;0.75;;;18.40;70.80;;;;;;5123859;27;45421;-77
2022/04/13 11:43:02;;;;;;;2.65;1.05;;;18.40;69.80;;;;;;5113672;27;45405;-78
2022/04/13 11:45:31;;;;;;;1.40;0.88;;;18.50;70.00;;;;;;5121440;27;45192;-77
2022/04/13 11:48:03;;;;;;;5.05;1.50;;;18.50;70.40;;;;;;5120802;27;45360;-77
2022/04/13 11:50:33;;;;;;;2.03;1.23;;;18.50;71.90;;;;;;5117765;27;47672;-77
2022/04/13 11:53:02;;;;;;;1.88;1.00;;;18.50;72.00;;;;;;5129243;27;45172;-77
2022/04/13 11:55:35;;;;;;;1.63;0.90;;;18.50;71.70;;;;;;5128646;27;45483;-78
2022/04/13 11:58:22;;;;;;;1.80;1.00;;;18.40;72.20;;;;;;5128750;27;45245;-78
2022/04/13 12:00:59;;;;;;;2.83;1.13;;;18.40;72.90;;;;;;5126581;27;47346;-78
2022/04/13 12:03:28;;;;;;;2.08;1.00;;;18.40;72.50;;;;;;5118569;27;45339;-78
2022/04/13 12:05:56;;;;;;;2.38;0.98;;;18.40;72.50;;;;;;5114854;27;45315;-78
2022/04/13 12:08:25;;;;;;;1.92;1.08;;;18.40;72.90;;;;;;5141521;27;45210;-78
2022/04/13 12:10:57;;;;;;;2.83;1.10;;;18.40;72.90;;;;;;5129018;27;46539;-78
2022/04/13 12:13:24;;;;;;;3.25;1.10;;;18.40;73.00;;;;;;5109542;27;45234;-78
2022/04/13 12:15:52;;;;;;;3.47;1.10;;;18.40;72.90;;;;;;5129613;27;45264;-78
2022/04/13 12:18:22;;;;;;;1.83;1.05;;;18.50;73.10;;;;;;5127915;27;45256;-78
2022/04/13 12:20:49;;;;;;;2.33;1.15;;;18.50;73.00;;;;;;5127001;27;45516;-78
2022/04/13 12:23:22;;;;;;;2.22;0.80;;;18.50;74.20;;;;;;5128924;27;45294;-78
2022/04/13 12:25:51;;;;;;;2.85;1.00;;;18.50;73.30;;;;;;5129533;27;45339;-77
2022/04/13 12:28:19;;;;;;;1.33;0.75;;;18.50;73.40;;;;;;5122132;27;45144;-78
2022/04/13 12:30:56;;;;;;;2.55;1.15;;;18.50;73.50;;;;;;5113789;27;45226;-77
2022/04/13 12:33:26;;;;;;;1.50;0.80;;;18.50;73.00;;;;;;5128838;27;45254;-78
2022/04/13 12:35:54;;;;;;;2.20;1.00;;;18.50;72.90;;;;;;5127886;27;45203;-78
2022/04/13 12:38:28;;;;;;;1.00;0.73;;;18.50;73.20;;;;;;5127549;27;45387;-78
2022/04/13 12:41:10;;;;;;;2.35;0.98;;;18.50;72.40;;;;;;5125599;27;45341;-78
2022/04/13 12:43:39;;;;;;;2.67;0.95;;;18.50;72.80;;;;;;5116077;27;45214;-78
2022/04/13 12:46:10;;;;;;;2.67;1.10;;;18.50;73.30;;;;;;5127619;27;45253;-78
2022/04/13 12:48:40;;;;;;;1.10;0.90;;;18.50;73.90;;;;;;5120418;27;45452;-77
2022/04/13 12:51:07;;;;;;;2.05;1.05;;;18.50;73.50;;;;;;5125366;27;45377;-78
2022/04/13 12:53:53;;;;;;;3.45;1.17;;;18.50;74.30;;;;;;5128585;27;45996;-77